createdAt,value
2018-03-08T00:01:17.900Z,4.30
2018-03-08T00:03:45.698Z,4.30
2018-03-08T00:09:23.869Z,4.20
2018-03-08T00:11:58.869Z,4.20
2018-03-08T00:14:40.306Z,4.20
2018-03-08T00:17:18.641Z,4.20
2018-03-08T00:19:48.390Z,4.10
2018-03-08T00:22:17.810Z,4.00
2018-03-08T00:24:45.821Z,4.10
2018-03-08T00:29:50.954Z,4.00
2018-03-08T00:32:22.821Z,4.00
2018-03-08T00:35:05.962Z,4.00
2018-03-08T00:37:33.947Z,3.90
2018-03-08T00:40:01.887Z,3.90
2018-03-08T00:42:30.489Z,3.80
2018-03-08T00:44:58.284Z,3.80
2018-03-08T00:47:26.037Z,3.80
2018-03-08T00:49:53.786Z,3.80
2018-03-08T00:52:24.314Z,3.80
2018-03-08T00:54:52.125Z,3.70
2018-03-08T00:57:20.631Z,3.70
2018-03-08T00:59:48.583Z,3.70
2018-03-08T01:02:16.373Z,3.70
2018-03-08T01:04:44.236Z,3.70
2018-03-08T01:07:12.162Z,3.70
2018-03-08T01:09:39.961Z,3.70
2018-03-08T01:12:07.734Z,3.70
2018-03-08T01:14:35.429Z,3.70
2018-03-08T01:17:03.653Z,3.70
2018-03-08T01:19:31.603Z,3.70
2018-03-08T01:21:59.625Z,3.70
2018-03-08T01:24:30.510Z,3.70
2018-03-08T01:27:13.489Z,3.60
2018-03-08T01:32:24.075Z,3.60
2018-03-08T01:34:52.323Z,3.60
2018-03-08T01:37:20.813Z,3.60
2018-03-08T01:39:48.555Z,3.60
2018-03-08T01:42:16.393Z,3.50
2018-03-08T01:44:44.745Z,3.50
2018-03-08T01:47:12.604Z,3.50
2018-03-08T01:49:40.887Z,3.50
2018-03-08T01:52:12.386Z,3.50
2018-03-08T01:54:40.338Z,3.50
2018-03-08T01:57:08.942Z,3.50
2018-03-08T01:59:36.892Z,3.40
2018-03-08T02:02:05.711Z,3.50
2018-03-08T02:04:33.616Z,3.50
2018-03-08T02:07:01.417Z,3.40
2018-03-08T02:09:30.042Z,3.40
2018-03-08T02:11:57.805Z,3.40
2018-03-08T02:14:25.828Z,3.40
2018-03-08T02:16:53.751Z,3.40
2018-03-08T02:19:21.700Z,3.30
2018-03-08T02:21:49.655Z,3.30
2018-03-08T02:24:17.366Z,3.30
2018-03-08T02:26:45.181Z,3.30
2018-03-08T02:29:12.847Z,3.30
2018-03-08T02:31:40.783Z,3.20
2018-03-08T02:34:08.459Z,3.20
2018-03-08T02:36:36.204Z,3.20
2018-03-08T02:39:04.115Z,3.20
2018-03-08T02:41:32.703Z,3.20
2018-03-08T02:44:00.432Z,3.20
2018-03-08T02:46:28.946Z,3.20
2018-03-08T02:48:56.651Z,3.20
2018-03-08T02:51:24.354Z,3.20
2018-03-08T02:53:52.237Z,3.20
2018-03-08T02:56:20.019Z,3.30
2018-03-08T02:58:47.990Z,3.40
2018-03-08T03:01:16.606Z,3.40
2018-03-08T03:03:44.361Z,3.60
2018-03-08T03:06:12.135Z,3.70
2018-03-08T03:08:39.803Z,3.80
2018-03-08T03:11:13.366Z,3.90
2018-03-08T03:13:41.387Z,3.80
2018-03-08T03:16:09.383Z,3.90
2018-03-08T03:18:37.364Z,3.90
2018-03-08T03:21:05.319Z,3.90
2018-03-08T03:23:33.095Z,3.90
2018-03-08T03:26:01.008Z,3.90
2018-03-08T03:28:28.723Z,3.90
2018-03-08T03:30:58.105Z,4.00
2018-03-08T03:33:25.901Z,4.10
2018-03-08T03:35:53.752Z,4.20
2018-03-08T03:38:21.476Z,4.20
2018-03-08T03:40:50.452Z,4.20
2018-03-08T03:43:18.210Z,4.20
2018-03-08T03:45:46.956Z,4.40
2018-03-08T03:48:14.828Z,4.40
2018-03-08T03:50:43.867Z,4.40
2018-03-08T03:53:11.609Z,4.30
2018-03-08T03:55:39.321Z,4.40
2018-03-08T03:58:08.156Z,4.40
2018-03-08T04:00:35.911Z,4.40
2018-03-08T04:03:03.856Z,4.40
2018-03-08T04:05:31.755Z,4.40
2018-03-08T04:07:59.487Z,4.40
2018-03-08T04:10:27.225Z,4.30
2018-03-08T04:12:55.008Z,4.40
2018-03-08T04:15:22.803Z,4.30
2018-03-08T04:17:51.898Z,4.30
2018-03-08T04:20:19.694Z,4.30
2018-03-08T04:22:48.566Z,4.30
2018-03-08T04:25:16.215Z,4.40
2018-03-08T04:27:43.990Z,4.30
2018-03-08T04:30:11.997Z,4.40
2018-03-08T04:32:40.244Z,4.50
2018-03-08T04:35:08.136Z,4.50
2018-03-08T04:37:36.163Z,4.70
2018-03-08T04:40:04.308Z,4.80
2018-03-08T04:42:33.209Z,4.80
2018-03-08T04:45:03.407Z,4.90
2018-03-08T04:47:31.312Z,4.90
2018-03-08T04:49:59.217Z,5.00
2018-03-08T04:52:27.137Z,5.10
2018-03-08T04:54:55.836Z,5.20
2018-03-08T04:57:23.804Z,5.20
2018-03-08T04:59:53.613Z,5.20
2018-03-08T05:02:26.166Z,5.20
2018-03-08T05:04:54.103Z,5.20
2018-03-08T05:07:22.049Z,5.20
2018-03-08T05:09:49.913Z,5.10
2018-03-08T05:12:17.770Z,5.20
2018-03-08T05:14:46.833Z,5.10
2018-03-08T05:17:14.933Z,5.20
2018-03-08T05:19:42.894Z,5.20
2018-03-08T05:22:10.628Z,5.20
2018-03-08T05:24:38.563Z,5.20
2018-03-08T05:27:06.554Z,5.20
2018-03-08T05:29:34.411Z,5.10
2018-03-08T05:32:02.301Z,5.10
2018-03-08T05:34:33.299Z,5.00
2018-03-08T05:37:01.173Z,5.00
2018-03-08T05:39:29.086Z,4.90
2018-03-08T05:41:56.834Z,5.00
2018-03-08T05:44:26.232Z,5.00
2018-03-08T05:46:54.033Z,5.00
2018-03-08T05:49:21.884Z,5.00
2018-03-08T05:51:49.840Z,5.10
2018-03-08T05:54:18.741Z,5.00
2018-03-08T05:56:46.626Z,5.00
2018-03-08T05:59:15.164Z,5.00
2018-03-08T06:01:43.042Z,5.00
2018-03-08T06:04:11.049Z,5.00
2018-03-08T06:06:38.977Z,5.00
2018-03-08T06:09:07.795Z,5.00
2018-03-08T06:11:39.968Z,5.00
2018-03-08T06:14:07.846Z,5.00
2018-03-08T06:16:35.761Z,5.00
2018-03-08T06:19:03.916Z,5.00
2018-03-08T06:21:31.732Z,5.00
2018-03-08T06:24:00.135Z,5.10
2018-03-08T06:26:28.485Z,5.10
2018-03-08T06:28:57.280Z,5.30
2018-03-08T06:31:25.022Z,5.20
2018-03-08T06:33:53.139Z,5.40
2018-03-08T06:36:21.030Z,5.30
2018-03-08T06:38:49.039Z,5.40
2018-03-08T06:41:16.933Z,5.40
2018-03-08T06:43:44.876Z,5.40
2018-03-08T06:46:12.777Z,5.50
2018-03-08T06:48:40.773Z,5.50
2018-03-08T06:51:08.900Z,5.50
2018-03-08T06:53:37.719Z,5.40
2018-03-08T06:56:05.685Z,5.40
2018-03-08T06:58:35.541Z,5.50
2018-03-08T07:01:04.213Z,5.40
2018-03-08T07:03:32.227Z,5.40
2018-03-08T07:06:00.143Z,5.50
2018-03-08T07:08:28.239Z,5.50
2018-03-08T07:10:56.218Z,5.60
2018-03-08T07:13:24.915Z,5.70
2018-03-08T07:15:53.083Z,5.60
2018-03-08T07:18:21.629Z,5.70
2018-03-08T07:20:50.575Z,5.60
2018-03-08T07:23:18.499Z,5.70
2018-03-08T07:25:46.515Z,5.80
2018-03-08T07:28:14.588Z,5.80
2018-03-08T07:30:44.438Z,5.80
2018-03-08T07:33:13.028Z,5.80
2018-03-08T07:35:40.880Z,5.80
2018-03-08T07:38:08.779Z,5.80
2018-03-08T07:40:36.880Z,5.90
2018-03-08T07:43:05.335Z,5.90
2018-03-08T07:45:33.949Z,5.90
2018-03-08T07:48:01.828Z,6.00
2018-03-08T07:50:29.938Z,6.00
2018-03-08T07:52:57.868Z,6.00
2018-03-08T07:55:25.808Z,6.10
2018-03-08T07:57:53.786Z,6.10
2018-03-08T08:00:22.486Z,6.20
2018-03-08T08:02:51.120Z,6.20
2018-03-08T08:05:30.730Z,6.20
2018-03-08T08:08:10.389Z,6.30
2018-03-08T08:10:39.141Z,6.40
2018-03-08T08:13:09.263Z,6.50
2018-03-08T08:15:38.964Z,6.50
2018-03-08T08:18:06.960Z,6.50
2018-03-08T08:20:35.379Z,6.60
2018-03-08T08:23:03.435Z,6.70
2018-03-08T08:25:31.215Z,6.80
2018-03-08T08:27:58.968Z,6.90
2018-03-08T08:30:26.853Z,6.90
2018-03-08T08:32:54.757Z,7.00
2018-03-08T08:35:22.725Z,7.10
2018-03-08T08:37:51.622Z,7.20
2018-03-08T08:40:20.299Z,7.30
2018-03-08T08:42:48.870Z,7.30
2018-03-08T08:45:16.580Z,7.30
2018-03-08T08:47:44.319Z,7.40
2018-03-08T08:50:12.165Z,7.50
2018-03-08T08:52:40.903Z,7.50
2018-03-08T08:55:08.619Z,7.50
2018-03-08T08:57:36.518Z,7.60
2018-03-08T09:00:04.545Z,7.60
2018-03-08T09:02:32.597Z,7.70
2018-03-08T09:05:00.460Z,7.70
2018-03-08T09:07:28.368Z,7.80
2018-03-08T09:09:56.212Z,7.80
2018-03-08T09:12:24.208Z,7.90
2018-03-08T09:14:52.174Z,7.90
2018-03-08T09:17:20.149Z,8.00
2018-03-08T09:19:49.699Z,8.10
2018-03-08T09:22:18.371Z,8.20
2018-03-08T09:24:47.160Z,8.20
2018-03-08T09:27:15.060Z,8.30
2018-03-08T09:29:43.225Z,8.40
2018-03-08T09:32:11.059Z,8.50
2018-03-08T09:34:38.805Z,8.60
2018-03-08T09:37:07.290Z,8.80
2018-03-08T09:39:35.335Z,8.70
2018-03-08T09:42:03.105Z,9.00
2018-03-08T09:44:31.207Z,9.20
2018-03-08T09:46:58.934Z,9.30
2018-03-08T09:49:26.833Z,9.50
2018-03-08T09:51:54.575Z,9.50
2018-03-08T09:54:22.351Z,9.60
2018-03-08T09:56:50.195Z,9.80
2018-03-08T09:59:19.036Z,10.00
2018-03-08T10:01:46.959Z,10.10
2018-03-08T10:04:15.649Z,10.00
2018-03-08T10:06:43.427Z,9.90
2018-03-08T10:09:11.289Z,10.10
2018-03-08T10:11:39.149Z,10.00
2018-03-08T10:14:06.916Z,9.90
2018-03-08T10:16:34.922Z,9.80
2018-03-08T10:19:03.069Z,9.80
2018-03-08T10:21:44.546Z,9.60
2018-03-08T10:23:59.480Z,9.50
2018-03-08T10:26:27.564Z,9.60
2018-03-08T10:28:55.481Z,9.70
2018-03-08T10:31:23.443Z,9.70
2018-03-08T10:33:51.441Z,9.70
2018-03-08T10:36:19.314Z,9.70
2018-03-08T10:38:47.527Z,9.60
2018-03-08T10:41:15.214Z,9.80
2018-03-08T10:43:42.930Z,9.80
2018-03-08T10:46:10.976Z,9.90
2018-03-08T10:48:38.993Z,9.90
2018-03-08T10:51:07.740Z,10.00
2018-03-08T10:53:35.770Z,9.90
2018-03-08T10:56:03.589Z,10.00
2018-03-08T10:58:33.210Z,9.90
2018-03-08T11:00:59.779Z,9.80
2018-03-08T11:03:48.363Z,10.00
2018-03-08T11:06:21.053Z,10.30
2018-03-08T11:08:48.873Z,10.50
2018-03-08T11:11:16.740Z,10.90
2018-03-08T11:13:45.433Z,11.20
2018-03-08T11:16:13.354Z,11.20
2018-03-08T11:18:41.809Z,11.30
2018-03-08T11:21:09.754Z,11.30
2018-03-08T11:23:37.764Z,11.40
2018-03-08T11:26:05.917Z,11.70
2018-03-08T11:28:34.642Z,11.80
2018-03-08T11:31:02.543Z,11.70
2018-03-08T11:33:30.312Z,11.80
2018-03-08T11:35:58.307Z,11.80
2018-03-08T11:38:26.289Z,12.00
2018-03-08T11:40:54.211Z,11.70
2018-03-08T11:43:23.880Z,11.80
2018-03-08T11:45:51.152Z,11.80
2018-03-08T11:48:19.099Z,11.90
2018-03-08T11:50:47.210Z,12.00
2018-03-08T11:53:15.957Z,12.10
2018-03-08T11:55:44.023Z,12.00
2018-03-08T11:58:11.895Z,12.20
2018-03-08T12:00:39.907Z,12.20
2018-03-08T12:03:07.846Z,12.10
2018-03-08T12:05:35.734Z,11.90
2018-03-08T12:08:03.755Z,11.70
2018-03-08T12:10:31.767Z,11.70
2018-03-08T12:13:00.536Z,11.40
2018-03-08T12:15:29.078Z,11.20
2018-03-08T12:17:56.940Z,11.10
2018-03-08T12:20:25.550Z,11.00
2018-03-08T12:22:53.474Z,10.90
2018-03-08T12:25:21.358Z,11.10
2018-03-08T12:27:49.255Z,11.10
2018-03-08T12:30:17.214Z,11.30
2018-03-08T12:32:45.119Z,11.60
2018-03-08T12:35:13.008Z,11.80
2018-03-08T12:37:40.905Z,12.00
2018-03-08T12:40:08.788Z,12.30
2018-03-08T12:42:37.699Z,12.70
2018-03-08T12:45:05.583Z,12.60
2018-03-08T12:47:33.629Z,12.90
2018-03-08T12:50:01.579Z,12.80
2018-03-08T12:52:29.682Z,12.70
2018-03-08T12:54:57.407Z,12.70
2018-03-08T12:57:26.023Z,12.20
2018-03-08T12:59:53.968Z,12.20
2018-03-08T13:02:21.829Z,12.20
2018-03-08T13:04:49.689Z,12.10
2018-03-08T13:07:17.800Z,12.20
2018-03-08T13:09:45.618Z,12.30
2018-03-08T13:12:13.572Z,12.30
2018-03-08T13:14:42.246Z,12.70
2018-03-08T13:17:10.264Z,12.70
2018-03-08T13:19:38.240Z,13.00
2018-03-08T13:22:07.312Z,13.20
2018-03-08T13:24:36.048Z,13.30
2018-03-08T13:27:03.997Z,13.20
2018-03-08T13:29:32.106Z,13.40
2018-03-08T13:32:00.032Z,13.50
2018-03-08T13:34:27.989Z,13.70
2018-03-08T13:36:55.933Z,13.80
2018-03-08T13:39:23.661Z,13.60
2018-03-08T13:41:51.382Z,13.60
2018-03-08T13:44:19.576Z,13.80
2018-03-08T13:46:48.074Z,13.70
2018-03-08T13:49:27.726Z,13.60
2018-03-08T13:51:56.607Z,13.80
2018-03-08T13:54:24.281Z,13.80
2018-03-08T13:56:52.002Z,13.70
2018-03-08T13:59:20.430Z,13.80
2018-03-08T14:01:49.880Z,13.80
2018-03-08T14:04:17.971Z,13.80
2018-03-08T14:06:45.696Z,13.80
2018-03-08T14:09:13.598Z,13.70
2018-03-08T14:11:41.387Z,13.40
2018-03-08T14:14:09.123Z,13.20
2018-03-08T14:16:37.061Z,13.00
2018-03-08T14:19:04.911Z,13.00
2018-03-08T14:21:32.771Z,12.90
2018-03-08T14:24:00.718Z,12.80
2018-03-08T14:26:29.064Z,12.70
2018-03-08T14:28:57.076Z,12.70
2018-03-08T14:31:24.932Z,12.70
2018-03-08T14:33:53.626Z,12.70
2018-03-08T14:36:21.379Z,12.80
2018-03-08T14:38:49.310Z,12.90
2018-03-08T14:41:17.274Z,13.00
2018-03-08T14:43:45.370Z,13.00
2018-03-08T14:46:13.196Z,13.00
2018-03-08T14:48:41.922Z,13.10
2018-03-08T14:51:09.956Z,13.00
2018-03-08T14:53:37.815Z,13.00
2018-03-08T14:56:06.463Z,12.90
2018-03-08T14:58:34.365Z,12.90
2018-03-08T15:01:03.043Z,12.90
2018-03-08T15:03:31.573Z,12.90
2018-03-08T15:06:00.108Z,12.90
2018-03-08T15:08:27.980Z,12.90
2018-03-08T15:10:56.025Z,12.90
2018-03-08T15:13:24.026Z,12.90
2018-03-08T15:15:52.108Z,12.80
2018-03-08T15:18:20.898Z,12.80
2018-03-08T15:20:48.855Z,12.70
2018-03-08T15:23:16.845Z,12.80
2018-03-08T15:25:44.622Z,12.70
2018-03-08T15:28:12.683Z,12.70
2018-03-08T15:30:41.402Z,12.60
2018-03-08T15:33:09.356Z,12.50
2018-03-08T15:35:37.423Z,12.50
2018-03-08T15:38:05.218Z,12.40
2018-03-08T15:40:33.136Z,12.40
2018-03-08T15:43:01.759Z,12.30
2018-03-08T15:45:29.491Z,12.30
2018-03-08T15:47:58.076Z,12.30
2018-03-08T15:50:25.756Z,12.20
2018-03-08T15:52:53.882Z,12.20
2018-03-08T15:55:21.919Z,12.10
2018-03-08T15:57:49.888Z,12.10
2018-03-08T16:00:18.720Z,12.00
2018-03-08T16:02:46.607Z,11.90
2018-03-08T16:05:14.588Z,11.80
2018-03-08T16:07:54.895Z,11.60
2018-03-08T16:10:33.656Z,11.50
2018-03-08T16:13:02.511Z,11.20
2018-03-08T16:15:30.336Z,11.00
2018-03-08T16:17:58.138Z,10.90
2018-03-08T16:20:26.644Z,10.70
2018-03-08T16:22:54.628Z,10.60
2018-03-08T16:25:23.312Z,10.40
2018-03-08T16:27:50.888Z,10.30
2018-03-08T16:30:18.566Z,10.30
2018-03-08T16:32:46.900Z,10.00
2018-03-08T16:35:14.784Z,9.90
2018-03-08T16:37:42.386Z,9.90
2018-03-08T16:40:10.001Z,9.70
2018-03-08T16:42:37.701Z,9.60
2018-03-08T16:45:05.457Z,9.50
2018-03-08T16:47:33.947Z,9.20
2018-03-08T16:50:02.476Z,9.20
2018-03-08T16:52:30.202Z,9.10
2018-03-08T16:54:58.886Z,8.90
2018-03-08T16:57:26.628Z,8.80
2018-03-08T16:59:54.386Z,8.60
2018-03-08T17:02:23.965Z,8.30
2018-03-08T17:04:52.602Z,8.30
2018-03-08T17:07:21.007Z,8.20
2018-03-08T17:09:50.792Z,8.20
2018-03-08T17:12:19.258Z,8.10
2018-03-08T17:14:46.981Z,8.10
2018-03-08T17:17:14.686Z,8.10
2018-03-08T17:19:43.278Z,8.00
2018-03-08T17:22:11.027Z,8.00
2018-03-08T17:24:39.474Z,7.90
2018-03-08T17:27:08.188Z,7.80
2018-03-08T17:29:36.762Z,7.80
2018-03-08T17:32:04.392Z,7.70
2018-03-08T17:34:32.221Z,7.70
2018-03-08T17:37:00.204Z,7.70
2018-03-08T17:39:28.063Z,7.60
2018-03-08T17:41:55.889Z,7.60
2018-03-08T17:44:24.520Z,7.40
2018-03-08T17:46:52.291Z,7.40
2018-03-08T17:49:19.966Z,7.30
2018-03-08T17:51:47.622Z,7.30
2018-03-08T17:54:15.269Z,7.20
2018-03-08T17:56:43.686Z,7.10
2018-03-08T17:59:12.050Z,7.00
2018-03-08T18:01:39.642Z,6.90
2018-03-08T18:04:07.308Z,6.90
2018-03-08T18:06:34.900Z,6.80
2018-03-08T18:09:03.428Z,6.60
2018-03-08T18:11:31.186Z,6.60
2018-03-08T18:13:58.955Z,6.60
2018-03-08T18:16:27.510Z,6.50
2018-03-08T18:18:55.708Z,6.50
2018-03-08T18:21:32.775Z,6.40
2018-03-08T18:24:00.816Z,6.30
2018-03-08T18:26:28.850Z,6.40
2018-03-08T18:28:58.804Z,6.40
2018-03-08T18:31:28.686Z,6.40
2018-03-08T18:33:56.670Z,6.40
2018-03-08T18:36:25.654Z,6.40
2018-03-08T18:38:54.354Z,6.40
2018-03-08T18:41:22.471Z,6.40
2018-03-08T18:43:50.682Z,6.50
2018-03-08T18:49:22.694Z,6.40
2018-03-08T18:51:52.614Z,6.30
2018-03-08T18:54:22.551Z,6.40
2018-03-08T18:56:51.722Z,6.30
2018-03-08T18:59:20.528Z,6.30
2018-03-08T19:01:49.687Z,6.20
2018-03-08T19:04:20.064Z,6.20
2018-03-08T19:06:48.820Z,6.20
2018-03-08T19:09:16.888Z,6.10
2018-03-08T19:11:45.608Z,6.10
2018-03-08T19:14:14.520Z,6.00
2018-03-08T19:16:42.596Z,6.00
2018-03-08T19:19:12.668Z,5.90
2018-03-08T19:21:40.792Z,5.80
2018-03-08T19:24:08.624Z,5.80
2018-03-08T19:26:36.890Z,5.80
2018-03-08T19:29:04.633Z,5.70
2018-03-08T19:31:33.051Z,5.70
2018-03-08T19:34:00.756Z,5.60
2018-03-08T19:36:30.174Z,5.50
2018-03-08T19:38:57.918Z,5.40
2018-03-08T19:41:25.856Z,5.50
2018-03-08T19:43:53.697Z,5.40
2018-03-08T19:46:22.245Z,5.40
2018-03-08T19:48:50.000Z,5.40
2018-03-08T19:51:17.723Z,5.30
2018-03-08T19:53:45.454Z,5.30
2018-03-08T19:56:13.182Z,5.20
2018-03-08T19:58:41.763Z,5.10
2018-03-08T20:01:09.482Z,5.10
2018-03-08T20:03:37.400Z,5.10
2018-03-08T20:06:05.319Z,5.10
2018-03-08T20:08:33.126Z,5.00
2018-03-08T20:11:00.986Z,4.90
2018-03-08T20:13:29.344Z,4.90
2018-03-08T20:15:59.121Z,4.80
2018-03-08T20:18:28.546Z,4.80
2018-03-08T20:20:56.301Z,4.80
2018-03-08T20:23:24.530Z,4.70
2018-03-08T20:25:52.367Z,4.70
2018-03-08T20:28:21.539Z,4.70
2018-03-08T20:30:49.454Z,4.70
2018-03-08T20:33:17.759Z,4.60
2018-03-08T20:35:46.157Z,4.60
2018-03-08T20:38:14.014Z,4.60
2018-03-08T20:40:41.792Z,4.60
2018-03-08T20:43:10.454Z,4.60
2018-03-08T20:45:38.304Z,4.60
2018-03-08T20:48:07.395Z,4.50
2018-03-08T20:50:37.902Z,4.50
2018-03-08T20:53:06.760Z,4.50
2018-03-08T20:55:34.623Z,4.50
2018-03-08T20:58:02.418Z,4.50
2018-03-08T21:00:30.119Z,4.40
2018-03-08T21:02:57.797Z,4.40
2018-03-08T21:05:25.456Z,4.30
2018-03-08T21:07:53.853Z,4.20
2018-03-08T21:10:22.348Z,4.10
2018-03-08T21:12:50.006Z,4.00
2018-03-08T21:15:18.453Z,3.90
2018-03-08T21:17:46.850Z,3.80
2018-03-08T21:20:14.554Z,3.80
2018-03-08T21:22:42.082Z,3.70
2018-03-08T21:25:09.835Z,3.60
2018-03-08T21:27:37.414Z,3.50
2018-03-08T21:30:05.980Z,3.40
2018-03-08T21:32:33.556Z,3.30
2018-03-08T21:35:02.010Z,3.10
2018-03-08T21:37:30.450Z,3.00
2018-03-08T21:39:58.082Z,3.00
2018-03-08T21:42:25.818Z,2.90
2018-03-08T21:44:53.520Z,2.90
2018-03-08T21:47:21.167Z,2.80
2018-03-08T21:49:48.838Z,2.70
2018-03-08T21:52:16.490Z,2.60
2018-03-08T21:54:44.156Z,2.50
2018-03-08T21:57:11.778Z,2.40
2018-03-08T21:59:39.556Z,2.40
2018-03-08T22:02:07.148Z,2.30
2018-03-08T22:04:35.270Z,2.20
2018-03-08T22:07:02.936Z,2.20
2018-03-08T22:09:30.608Z,2.10
2018-03-08T22:11:58.262Z,2.00
2018-03-08T22:14:25.955Z,2.00
2018-03-08T22:16:55.718Z,1.90
2018-03-08T22:19:23.590Z,1.80
2018-03-08T22:21:52.352Z,1.80
2018-03-08T22:24:20.356Z,1.70
2018-03-08T22:26:48.168Z,1.70
2018-03-08T22:29:16.066Z,1.60
2018-03-08T22:31:44.001Z,1.50
2018-03-08T22:34:12.775Z,1.50
2018-03-08T22:36:41.771Z,1.50
2018-03-08T22:39:10.436Z,1.40
2018-03-08T22:41:39.039Z,1.30
2018-03-08T22:44:06.991Z,1.30
2018-03-08T22:46:34.922Z,1.30
2018-03-08T22:49:02.926Z,1.20
2018-03-08T22:51:33.194Z,1.20
2018-03-08T22:54:01.923Z,1.10
2018-03-08T22:56:29.743Z,1.10
2018-03-08T22:58:57.512Z,1.10
2018-03-08T23:01:48.899Z,1.00
2018-03-08T23:04:17.384Z,1.00
2018-03-08T23:06:45.256Z,0.90
2018-03-08T23:09:13.105Z,0.90
2018-03-08T23:11:41.003Z,0.90
2018-03-08T23:14:08.882Z,0.80
2018-03-08T23:16:36.747Z,0.80
2018-03-08T23:19:05.307Z,0.70
2018-03-08T23:21:33.216Z,0.70
2018-03-08T23:24:01.060Z,0.60
2018-03-08T23:26:28.983Z,0.50
2018-03-08T23:28:57.706Z,0.50
2018-03-08T23:31:25.573Z,0.40
2018-03-08T23:33:53.395Z,0.50
2018-03-08T23:36:21.282Z,0.40
2018-03-08T23:38:49.344Z,0.40
2018-03-08T23:41:17.067Z,0.40
2018-03-08T23:43:44.746Z,0.40
2018-03-08T23:46:12.449Z,0.40
2018-03-08T23:48:40.238Z,0.40
2018-03-08T23:51:08.080Z,0.40
2018-03-08T23:53:36.652Z,0.40
2018-03-08T23:56:05.030Z,0.30
2018-03-08T23:58:33.453Z,0.30
